Time;durP1;ratioP1;P1;durP2;ratioP2;P2;SDS_P1;SDS_P2;PMS_P1;PMS_P2;Temp;Humidity;BMP_temperature;BMP_pressure;BME280_temperature;BME280_humidity;BME280_pressure;Samples;Min_cycle;Max_cycle;Signal;HPM_P1;HPM_P2
2021/09/05 00:01:11;;;;;;;5.15;2.90;;;;;;;10.65;100.00;101224.25;5202177;28;20497;-79
2021/09/05 00:03:41;;;;;;;5.40;2.92;;;;;;;10.70;100.00;101222.34;5215904;28;20107;-79
2021/09/05 00:06:12;;;;;;;5.07;2.60;;;;;;;10.85;100.00;101220.19;5197317;28;20039;-79
2021/09/05 00:08:43;;;;;;;5.20;2.88;;;;;;;10.63;100.00;101223.38;5194107;28;20606;-78
2021/09/05 00:11:13;;;;;;;3.92;2.40;;;;;;;10.77;100.00;101221.28;5221014;28;20104;-79
2021/09/05 00:13:43;;;;;;;5.40;2.70;;;;;;;10.86;100.00;101231.53;5200554;28;20057;-79
2021/09/05 00:16:14;;;;;;;4.78;2.72;;;;;;;10.84;100.00;101228.94;5190697;28;20025;-79
2021/09/05 00:18:44;;;;;;;5.25;2.80;;;;;;;10.88;100.00;101225.34;5217144;28;20037;-79
2021/09/05 00:21:15;;;;;;;3.30;2.03;;;;;;;10.71;100.00;101222.31;5213802;28;20366;-79
2021/09/05 00:23:45;;;;;;;5.13;2.58;;;;;;;10.94;100.00;101216.47;5194299;28;20086;-79
2021/09/05 00:26:15;;;;;;;4.28;2.55;;;;;;;10.87;100.00;101214.94;5198265;28;20025;-79
2021/09/05 00:28:46;;;;;;;4.50;2.55;;;;;;;10.62;100.00;101213.84;5219679;28;20021;-79
2021/09/05 00:31:16;;;;;;;5.45;2.90;;;;;;;10.55;100.00;101214.91;5216171;28;20100;-79
2021/09/05 00:33:46;;;;;;;4.50;2.70;;;;;;;10.36;100.00;101208.41;5219202;28;20082;-79
2021/09/05 00:36:16;;;;;;;5.50;2.70;;;;;;;10.31;100.00;101202.47;5196267;28;20467;-78
2021/09/05 00:38:47;;;;;;;5.47;2.92;;;;;;;10.30;100.00;101198.97;5215719;28;20018;-79
2021/09/05 00:41:17;;;;;;;4.78;2.78;;;;;;;10.38;100.00;101201.41;5207995;28;20156;-78
2021/09/05 00:44:04;;;;;;;4.63;2.67;;;;;;;10.19;100.00;101206.19;5201741;28;20031;-79
2021/09/05 00:46:36;;;;;;;4.05;2.50;;;;;;;10.24;100.00;101209.59;5221275;28;20047;-79
2021/09/05 00:49:09;;;;;;;4.50;2.40;;;;;;;10.11;100.00;101213.38;5217208;28;20087;-79
2021/09/05 00:51:42;;;;;;;3.80;2.17;;;;;;;10.21;100.00;101216.63;5210374;28;20554;-79
2021/09/05 00:54:16;;;;;;;4.35;2.28;;;;;;;10.09;100.00;101211.69;5193979;28;20465;-79
2021/09/05 00:56:46;;;;;;;5.22;2.40;;;;;;;10.25;100.00;101215.66;5223466;28;20031;-79
2021/09/05 00:59:19;;;;;;;4.40;2.42;;;;;;;10.09;100.00;101219.50;5203859;28;20017;-79
2021/09/05 01:01:50;;;;;;;5.28;2.60;;;;;;;10.29;100.00;101212.94;5224351;28;20047;-77
2021/09/05 01:04:20;;;;;;;4.88;2.67;;;;;;;10.24;100.00;101220.03;5203289;28;20017;-79
2021/09/05 01:06:50;;;;;;;5.65;2.83;;;;;;;10.10;100.00;101216.88;5224405;28;20025;-79
2021/09/05 01:09:21;;;;;;;5.75;3.17;;;;;;;10.15;100.00;101225.47;5201699;28;20028;-79
2021/09/05 01:11:51;;;;;;;5.90;3.17;;;;;;;10.03;100.00;101217.91;5206363;28;20115;-79
2021/09/05 01:14:22;;;;;;;6.13;3.20;;;;;;;10.14;100.00;101215.06;5200891;28;20063;-79
2021/09/05 01:16:54;;;;;;;4.78;2.97;;;;;;;10.13;100.00;101227.25;5194152;28;20032;-79
2021/09/05 01:19:24;;;;;;;6.03;3.08;;;;;;;10.09;100.00;101227.34;5223561;28;20025;-79
2021/09/05 01:21:54;;;;;;;6.07;3.13;;;;;;;10.13;100.00;101222.03;5195304;28;20049;-78
2021/09/05 01:24:25;;;;;;;4.93;2.90;;;;;;;10.06;100.00;101228.31;5198884;28;20434;-79
2021/09/05 01:26:57;;;;;;;4.53;2.95;;;;;;;10.27;100.00;101225.19;5223189;28;20422;-79
2021/09/05 01:29:27;;;;;;;5.82;2.92;;;;;;;10.33;100.00;101232.00;5203162;28;20029;-79
2021/09/05 01:31:59;;;;;;;5.47;3.22;;;;;;;10.27;100.00;101235.63;5222017;28;20228;-79
2021/09/05 01:34:29;;;;;;;4.90;3.00;;;;;;;10.20;100.00;101241.88;5220672;28;20029;-79
2021/09/05 01:37:00;;;;;;;7.50;3.33;;;;;;;10.07;100.00;101242.19;5221376;28;20492;-79
2021/09/05 01:39:30;;;;;;;6.07;2.95;;;;;;;9.83;100.00;101240.97;5220495;28;20108;-80
2021/09/05 01:42:00;;;;;;;6.05;3.20;;;;;;;9.99;100.00;101246.72;5221619;28;20024;-79
2021/09/05 01:44:31;;;;;;;4.95;3.08;;;;;;;9.92;100.00;101242.50;5199759;28;20057;-79
2021/09/05 01:47:01;;;;;;;6.85;3.03;;;;;;;9.96;100.00;101249.41;5212442;28;20025;-79
2021/09/05 01:49:31;;;;;;;5.20;3.00;;;;;;;9.66;100.00;101245.69;5221046;28;20435;-80
2021/09/05 01:52:02;;;;;;;6.10;3.35;;;;;;;9.60;100.00;101250.16;5220829;28;20039;-79
2021/09/05 01:57:59;;;;;;;6.70;3.22;;;;;;;9.99;100.00;101247.56;5217968;28;20044;-79
2021/09/05 02:00:29;;;;;;;6.20;3.40;;;;;;;9.98;100.00;101242.38;5203875;28;20356;-79
2021/09/05 02:02:59;;;;;;;5.75;3.20;;;;;;;9.69;100.00;101237.78;5220793;28;20025;-79
2021/09/05 02:05:30;;;;;;;6.75;3.63;;;;;;;9.61;100.00;101242.31;5204141;28;20089;-79
2021/09/05 02:08:00;;;;;;;6.05;3.35;;;;;;;9.57;100.00;101245.00;5202575;28;20414;-79
2021/09/05 02:10:30;;;;;;;6.63;3.05;;;;;;;9.69;100.00;101244.78;5222051;28;20021;-79
2021/09/05 02:13:01;;;;;;;5.82;3.50;;;;;;;10.04;100.00;101244.88;5220657;28;20618;-80
2021/09/05 02:15:31;;;;;;;5.85;3.20;;;;;;;9.65;100.00;101249.19;5212401;28;20035;-79
2021/09/05 02:18:01;;;;;;;5.30;3.20;;;;;;;9.63;100.00;101250.13;5216951;28;20040;-79
2021/09/05 02:20:32;;;;;;;5.85;3.28;;;;;;;9.94;100.00;101251.16;5201320;28;20275;-79
2021/09/05 02:23:03;;;;;;;6.97;3.53;;;;;;;9.92;100.00;101250.34;5210161;28;20024;-79
2021/09/05 02:25:33;;;;;;;6.10;3.38;;;;;;;9.78;100.00;101249.78;5201914;28;20489;-78
2021/09/05 02:28:04;;;;;;;6.05;3.55;;;;;;;9.80;100.00;101254.09;5220022;28;20035;-79
2021/09/05 02:30:37;;;;;;;6.45;3.42;;;;;;;9.79;100.00;101251.53;5202793;28;20022;-79
2021/09/05 02:33:07;;;;;;;7.28;3.30;;;;;;;9.65;100.00;101256.16;5218786;28;20059;-79
2021/09/05 02:35:38;;;;;;;5.78;3.40;;;;;;;9.79;100.00;101261.97;5219202;28;20029;-79
2021/09/05 02:38:08;;;;;;;6.47;3.72;;;;;;;9.98;100.00;101256.28;5202415;28;20029;-79
2021/09/05 02:40:38;;;;;;;5.85;3.42;;;;;;;9.70;100.00;101269.97;5198113;28;20131;-79
2021/09/05 02:43:09;;;;;;;6.32;3.65;;;;;;;9.62;100.00;101266.69;5200357;28;20033;-79
2021/09/05 02:45:39;;;;;;;4.88;3.00;;;;;;;9.52;100.00;101265.13;5202640;28;20037;-79
2021/09/05 02:48:10;;;;;;;5.18;3.30;;;;;;;9.43;100.00;101267.91;5217564;28;20034;-79
2021/09/05 02:50:40;;;;;;;5.07;3.17;;;;;;;9.25;100.00;101274.38;5216088;28;20178;-79
2021/09/05 02:53:10;;;;;;;6.25;3.63;;;;;;;9.37;100.00;101271.53;5225017;28;20035;-80
2021/09/05 02:55:41;;;;;;;7.95;3.72;;;;;;;9.71;100.00;101263.88;5219792;28;20052;-78
2021/09/05 02:58:11;;;;;;;6.20;3.45;;;;;;;9.47;100.00;101261.78;5204087;28;20174;-79
2021/09/05 03:00:41;;;;;;;10.30;3.70;;;;;;;9.67;100.00;101263.06;5201842;28;20124;-79
2021/09/05 03:03:11;;;;;;;6.03;3.38;;;;;;;9.72;100.00;101265.56;5220738;28;20441;-79
2021/09/05 03:05:42;;;;;;;6.45;3.35;;;;;;;9.94;100.00;101259.00;5219448;28;20026;-79
2021/09/05 03:08:12;;;;;;;6.97;3.85;;;;;;;10.10;100.00;101263.00;5205011;28;20483;-79
2021/09/05 03:10:44;;;;;;;7.78;4.25;;;;;;;10.11;100.00;101264.72;5201453;28;20029;-77
2021/09/05 03:13:14;;;;;;;7.10;3.88;;;;;;;10.04;100.00;101264.03;5222015;28;20028;-80
2021/09/05 03:15:44;;;;;;;8.18;4.53;;;;;;;10.10;100.00;101263.00;5207982;28;20379;-79
2021/09/05 03:18:15;;;;;;;7.55;3.90;;;;;;;9.95;100.00;101261.59;5220682;28;20009;-79
2021/09/05 03:20:45;;;;;;;6.35;4.00;;;;;;;9.88;100.00;101266.97;5217256;28;20064;-79
2021/09/05 03:23:15;;;;;;;7.03;4.13;;;;;;;9.94;100.00;101259.88;5196510;28;20018;-80
2021/09/05 03:25:46;;;;;;;7.35;4.03;;;;;;;10.09;100.00;101261.31;5203819;28;20378;-79
2021/09/05 03:28:16;;;;;;;8.23;4.07;;;;;;;9.90;100.00;101266.06;5200049;28;20098;-79
2021/09/05 03:30:46;;;;;;;7.63;4.00;;;;;;;9.74;100.00;101263.78;5217989;28;20259;-79
2021/09/05 03:33:16;;;;;;;8.13;4.30;;;;;;;9.90;100.00;101265.19;5221293;28;20020;-79
2021/09/05 03:35:47;;;;;;;7.65;4.55;;;;;;;10.02;100.00;101264.97;5217131;28;20065;-80
2021/09/05 03:38:17;;;;;;;8.20;4.18;;;;;;;10.09;100.00;101259.56;5221325;28;20042;-79
2021/09/05 03:40:47;;;;;;;10.73;4.78;;;;;;;9.95;100.00;101266.81;5198848;28;20036;-80
2021/09/05 03:43:17;;;;;;;9.55;4.80;;;;;;;10.02;100.00;101265.78;5202420;28;20025;-80
2021/09/05 03:45:48;;;;;;;7.10;4.20;;;;;;;10.17;100.00;101262.00;5206750;28;20039;-79
2021/09/05 03:48:18;;;;;;;9.02;4.30;;;;;;;10.03;100.00;101262.28;5218785;28;20026;-80
2021/09/05 03:50:48;;;;;;;7.47;4.15;;;;;;;10.03;100.00;101256.22;5216025;28;20021;-80
2021/09/05 03:53:19;;;;;;;9.13;3.78;;;;;;;9.83;100.00;101253.16;5194408;28;20032;-79
2021/09/05 03:55:49;;;;;;;7.85;4.68;;;;;;;9.80;100.00;101263.69;5202373;28;20213;-77
2021/09/05 03:58:19;;;;;;;7.80;4.70;;;;;;;9.88;100.00;101266.97;5216696;28;20017;-79
2021/09/05 04:00:50;;;;;;;7.07;4.30;;;;;;;9.56;100.00;101264.19;5195080;28;20445;-79
2021/09/05 04:03:23;;;;;;;10.63;4.90;;;;;;;9.75;100.00;101265.50;5203286;28;20025;-78
2021/09/05 04:05:53;;;;;;;6.72;4.35;;;;;;;9.90;100.00;101270.41;5199234;28;20017;-79
2021/09/05 04:08:32;;;;;;;11.07;4.88;;;;;;;9.90;100.00;101265.19;5197660;28;20025;-79
2021/09/05 04:11:02;;;;;;;9.75;4.40;;;;;;;9.90;100.00;101270.41;5216584;28;20132;-80
2021/09/05 04:13:34;;;;;;;7.68;4.93;;;;;;;10.07;100.00;101257.88;5217400;28;20040;-79
2021/09/05 04:16:04;;;;;;;8.20;4.35;;;;;;;9.96;100.00;101259.84;5206700;28;20051;-80
2021/09/05 04:18:34;;;;;;;10.32;5.15;;;;;;;9.93;100.00;101255.53;5201301;28;20013;-79
2021/09/05 04:21:05;;;;;;;9.30;4.57;;;;;;;9.84;100.00;101263.56;5196024;28;20032;-79
2021/09/05 04:23:35;;;;;;;7.47;4.85;;;;;;;9.84;100.00;101262.72;5191758;28;20049;-79
2021/09/05 04:26:05;;;;;;;7.60;4.60;;;;;;;9.76;100.00;101256.78;5217715;28;20036;-79
2021/09/05 04:28:35;;;;;;;10.45;5.22;;;;;;;9.75;100.00;101262.91;5218468;28;20037;-79
2021/09/05 04:31:06;;;;;;;7.30;4.63;;;;;;;9.87;100.00;101270.47;5217643;28;20037;-79
2021/09/05 04:33:37;;;;;;;9.25;5.05;;;;;;;9.98;100.00;101263.28;5200674;28;20049;-79
2021/09/05 04:36:07;;;;;;;11.07;5.20;;;;;;;9.98;100.00;101263.28;5218813;28;20028;-78
2021/09/05 04:38:37;;;;;;;8.05;4.28;;;;;;;9.93;100.00;101273.81;5220593;28;20415;-79
2021/09/05 04:41:08;;;;;;;10.85;4.95;;;;;;;10.00;100.00;101264.94;5219169;28;20032;-79
2021/09/05 04:43:38;;;;;;;8.10;4.93;;;;;;;10.33;100.00;101272.03;5220175;28;20033;-79
2021/09/05 04:46:08;;;;;;;11.65;4.82;;;;;;;10.25;100.00;101278.34;5206426;28;20364;-79
2021/09/05 04:48:40;;;;;;;8.60;4.60;;;;;;;10.20;100.00;101270.59;5219509;28;20710;-79
2021/09/05 04:51:11;;;;;;;10.65;4.82;;;;;;;10.17;100.00;101275.06;5213557;28;20071;-79
2021/09/05 04:53:41;;;;;;;8.38;4.63;;;;;;;10.31;100.00;101271.22;5211116;28;20021;-78
2021/09/05 04:56:14;;;;;;;8.73;4.82;;;;;;;10.45;100.00;101277.00;5199847;28;20035;-77
2021/09/05 04:58:44;;;;;;;8.35;4.97;;;;;;;10.44;100.00;101280.50;5220708;28;20031;-78
2021/09/05 05:01:14;;;;;;;8.88;4.63;;;;;;;10.47;100.00;101284.78;5217257;28;20033;-78
2021/09/05 05:03:45;;;;;;;10.80;4.72;;;;;;;10.72;100.00;101278.91;5220095;28;20093;-78
2021/09/05 05:06:15;;;;;;;8.40;4.72;;;;;;;10.78;100.00;101280.53;5217287;28;20033;-79
2021/09/05 05:08:46;;;;;;;9.63;5.10;;;;;;;10.78;100.00;101285.75;5219749;28;20025;-78
2021/09/05 05:11:16;;;;;;;12.38;5.13;;;;;;;10.70;100.00;101298.16;5211859;28;20036;-78
2021/09/05 05:13:47;;;;;;;9.23;4.88;;;;;;;10.76;100.00;101301.50;5223327;28;20045;-79
2021/09/05 05:16:17;;;;;;;8.85;5.32;;;;;;;10.62;100.00;101300.97;5210453;28;20062;-77
2021/09/05 05:18:48;;;;;;;9.32;4.97;;;;;;;10.87;100.00;101290.78;5216173;28;20411;-78
2021/09/05 05:21:18;;;;;;;8.30;4.70;;;;;;;10.99;100.00;101303.53;5214343;28;20036;-79
2021/09/05 05:23:49;;;;;;;10.93;5.00;;;;;;;10.91;100.00;101297.63;5212964;28;20032;-78
2021/09/05 05:26:19;;;;;;;10.60;5.60;;;;;;;10.92;100.00;101301.97;5217397;28;20029;-78
2021/09/05 05:28:50;;;;;;;10.20;5.22;;;;;;;10.91;100.00;101310.69;5221454;28;20044;-79
2021/09/05 05:31:20;;;;;;;8.60;5.22;;;;;;;10.68;100.00;101313.03;5198797;28;20508;-79
2021/09/05 05:33:50;;;;;;;9.57;5.15;;;;;;;10.57;100.00;101321.13;5220814;28;20052;-78
2021/09/05 05:36:21;;;;;;;8.90;4.90;;;;;;;10.74;100.00;101320.72;5216702;28;20492;-79
2021/09/05 05:38:51;;;;;;;8.20;4.95;;;;;;;10.62;100.00;101323.63;5220151;28;20033;-78
2021/09/05 05:41:21;;;;;;;7.88;4.63;;;;;;;10.76;100.00;101321.53;5217609;28;20025;-78
2021/09/05 05:43:52;;;;;;;8.20;5.15;;;;;;;10.72;100.00;101319.91;5224104;28;20025;-77
2021/09/05 05:46:22;;;;;;;8.77;4.80;;;;;;;11.09;100.00;101317.19;5214655;28;20029;-78
2021/09/05 05:48:52;;;;;;;7.97;4.55;;;;;;;11.09;100.00;101325.03;5215628;28;20025;-80
2021/09/05 05:51:23;;;;;;;9.63;5.30;;;;;;;10.86;100.00;101321.28;5212659;28;20415;-79
2021/09/05 05:53:53;;;;;;;8.10;4.60;;;;;;;11.25;100.00;101321.13;5215725;28;20021;-78
2021/09/05 05:56:23;;;;;;;7.53;4.47;;;;;;;11.37;100.00;101320.81;5220223;28;20060;-78
2021/09/05 05:58:54;;;;;;;7.18;4.32;;;;;;;11.43;100.00;101320.63;5223732;28;20025;-78
2021/09/05 06:01:24;;;;;;;7.43;4.63;;;;;;;11.87;100.00;101311.56;5219314;28;20037;-78
2021/09/05 06:03:54;;;;;;;8.93;4.40;;;;;;;11.83;100.00;101310.81;5220384;28;20024;-77
2021/09/05 06:06:25;;;;;;;6.30;4.27;;;;;;;11.90;100.00;101316.69;5220052;28;20059;-78
2021/09/05 06:08:55;;;;;;;6.38;4.10;;;;;;;12.27;100.00;101312.94;5220620;28;20288;-79
2021/09/05 06:11:27;;;;;;;6.32;4.25;;;;;;;12.49;100.00;101318.38;5222521;28;20025;-79
2021/09/05 06:13:57;;;;;;;7.63;4.47;;;;;;;12.36;100.00;101325.78;5224461;28;20029;-78
2021/09/05 06:16:28;;;;;;;7.22;3.95;;;;;;;12.41;100.00;101326.50;5227089;28;20383;-79
2021/09/05 06:18:59;;;;;;;8.48;3.95;;;;;;;12.45;100.00;101332.50;5223579;28;20159;-78
2021/09/05 06:21:30;;;;;;;5.45;3.58;;;;;;;12.60;100.00;101332.03;5216636;28;20365;-78
2021/09/05 06:24:00;;;;;;;6.55;4.30;;;;;;;12.25;100.00;101340.09;5215982;28;20034;-79
2021/09/05 06:26:30;;;;;;;6.85;3.80;;;;;;;12.58;100.00;101337.31;5221028;28;20021;-79
2021/09/05 06:29:01;;;;;;;6.25;3.90;;;;;;;12.76;100.00;101339.34;5221230;28;20676;-77
2021/09/05 06:31:31;;;;;;;5.63;3.57;;;;;;;12.85;100.00;101340.81;5222156;28;20065;-78
2021/09/05 06:34:02;;;;;;;6.10;3.50;;;;;;;12.91;100.00;101342.31;5202955;28;20279;-78
2021/09/05 06:36:32;;;;;;;7.63;4.00;;;;;;;12.99;100.00;101342.97;5217042;28;20036;-77
2021/09/05 06:39:03;;;;;;;7.07;3.50;;;;;;;13.10;100.00;101343.44;5220949;28;20021;-79
2021/09/05 06:41:33;;;;;;;5.90;3.88;;;;;;;12.97;100.00;101354.41;5220763;28;20038;-78
2021/09/05 06:44:04;;;;;;;5.75;3.67;;;;;;;13.36;100.00;101342.56;5222092;28;20028;-78
2021/09/05 06:46:34;;;;;;;5.63;3.78;;;;;;;13.64;100.00;101349.44;5207691;28;20040;-78
2021/09/05 06:49:04;;;;;;;4.93;3.47;;;;;;;13.87;100.00;101351.22;5220970;28;20102;-79
2021/09/05 06:51:35;;;;;;;6.25;3.63;;;;;;;13.85;100.00;101345.16;5196617;28;20017;-77
2021/09/05 06:54:05;;;;;;;5.78;3.55;;;;;;;13.98;100.00;101349.06;5218689;28;20585;-77
2021/09/05 06:56:35;;;;;;;5.10;3.13;;;;;;;14.34;100.00;101347.69;5221312;28;20032;-78
2021/09/05 06:59:05;;;;;;;4.72;3.22;;;;;;;15.42;99.01;101347.59;5220516;28;20029;-78
2021/09/05 07:01:36;;;;;;;4.93;3.00;;;;;;;17.44;87.47;101352.88;5215928;28;20036;-78
2021/09/05 07:04:06;;;;;;;4.53;2.70;;;;;;;18.49;81.73;101342.75;5201916;28;20038;-78
2021/09/05 07:06:36;;;;;;;3.60;2.60;;;;;;;19.25;80.18;101348.91;5218683;28;20048;-78
2021/09/05 07:09:07;;;;;;;4.30;2.67;;;;;;;20.64;73.42;101339.28;5220450;28;20292;-78
2021/09/05 07:11:37;;;;;;;3.38;2.40;;;;;;;21.84;70.54;101339.09;5219655;28;20354;-78
2021/09/05 07:14:07;;;;;;;4.22;2.88;;;;;;;19.74;75.02;101349.47;5205493;28;20043;-78
2021/09/05 07:16:37;;;;;;;3.63;2.43;;;;;;;19.39;75.73;101354.25;5224785;28;20036;-79
2021/09/05 07:19:08;;;;;;;3.50;2.43;;;;;;;17.99;81.94;101362.31;5218791;28;20374;-78
2021/09/05 07:21:38;;;;;;;4.13;2.72;;;;;;;17.31;85.67;101357.91;5212337;28;20276;-77
2021/09/05 07:24:08;;;;;;;4.80;2.97;;;;;;;17.56;84.62;101354.91;5213169;28;20033;-80
2021/09/05 07:26:39;;;;;;;5.30;3.20;;;;;;;16.71;86.82;101360.09;5219847;28;20276;-79
2021/09/05 07:29:10;;;;;;;4.80;3.00;;;;;;;15.85;91.78;101365.03;5218466;28;20064;-78
2021/09/05 07:31:40;;;;;;;5.25;3.20;;;;;;;14.52;98.45;101379.44;5218224;28;20104;-78
2021/09/05 07:34:10;;;;;;;5.32;3.50;;;;;;;14.75;98.46;101381.16;5219638;28;20031;-78
2021/09/05 07:36:41;;;;;;;5.40;3.55;;;;;;;14.84;98.96;101385.13;5214905;28;20056;-77
2021/09/05 07:39:12;;;;;;;5.72;3.90;;;;;;;14.22;100.00;101379.75;5198003;28;20542;-78
2021/09/05 07:41:42;;;;;;;5.57;3.53;;;;;;;14.41;100.00;101380.75;5219055;28;20037;-79
2021/09/05 07:44:12;;;;;;;5.57;3.92;;;;;;;14.22;100.00;101383.22;5211450;28;20411;-76
2021/09/05 07:46:44;;;;;;;5.47;3.72;;;;;;;14.72;100.00;101386.53;5208953;28;20055;-78
2021/09/05 07:49:14;;;;;;;6.10;4.00;;;;;;;13.84;100.00;101388.13;5207675;28;20024;-79
2021/09/05 07:51:44;;;;;;;6.40;4.15;;;;;;;14.10;100.00;101385.41;5215726;28;20037;-78
2021/09/05 07:54:15;;;;;;;6.05;3.83;;;;;;;14.23;100.00;101381.47;5217854;28;20155;-79
2021/09/05 07:56:45;;;;;;;5.80;3.80;;;;;;;14.30;100.00;101388.19;5214118;28;20103;-77
2021/09/05 07:59:16;;;;;;;6.05;4.47;;;;;;;14.06;100.00;101392.56;5208897;28;20052;-76
2021/09/05 08:01:46;;;;;;;7.57;4.53;;;;;;;14.17;100.00;101387.81;5201976;28;20021;-76
2021/09/05 08:04:16;;;;;;;7.50;4.53;;;;;;;14.48;100.00;101391.00;5209006;28;20029;-79
2021/09/05 08:06:46;;;;;;;8.27;4.37;;;;;;;14.61;100.00;101399.25;5197289;28;20037;-78
2021/09/05 08:09:17;;;;;;;8.95;4.57;;;;;;;14.60;100.00;101389.66;5214226;28;20295;-80
2021/09/05 08:11:47;;;;;;;6.20;4.17;;;;;;;14.61;100.00;101399.25;5219179;28;20217;-78
2021/09/05 08:14:17;;;;;;;7.38;5.10;;;;;;;14.11;100.00;101408.16;5217854;28;20313;-79
2021/09/05 08:16:47;;;;;;;8.75;4.30;;;;;;;14.43;100.00;101407.84;5198920;28;20521;-78
2021/09/05 08:19:18;;;;;;;7.90;5.15;;;;;;;14.28;100.00;101408.44;5216357;28;20029;-79
2021/09/05 08:21:48;;;;;;;7.63;5.18;;;;;;;14.10;100.00;101416.97;5216204;28;20028;-78
2021/09/05 08:24:18;;;;;;;8.60;5.25;;;;;;;13.85;100.00;101414.38;5222916;28;20379;-77
2021/09/05 08:26:48;;;;;;;8.10;5.10;;;;;;;14.03;100.00;101418.97;5215154;28;20079;-78
2021/09/05 08:29:19;;;;;;;8.85;5.18;;;;;;;14.63;100.00;101423.72;5221232;28;20029;-78
2021/09/05 08:31:49;;;;;;;7.63;4.72;;;;;;;16.12;97.97;101417.41;5217968;28;20705;-77
2021/09/05 08:34:19;;;;;;;6.80;4.35;;;;;;;16.55;94.40;101413.69;5216599;28;20483;-79
2021/09/05 08:36:49;;;;;;;8.63;5.10;;;;;;;16.86;91.87;101410.38;5200556;28;20072;-78
2021/09/05 08:39:20;;;;;;;7.22;4.78;;;;;;;16.52;92.77;101408.56;5201275;28;20029;-78
2021/09/05 08:41:50;;;;;;;7.53;5.15;;;;;;;16.84;92.77;101408.75;5206238;28;20443;-79
2021/09/05 08:44:21;;;;;;;8.45;4.88;;;;;;;17.06;91.00;101419.97;5212714;28;20029;-78
2021/09/05 08:46:53;;;;;;;7.38;4.63;;;;;;;17.50;88.45;101418.69;5205707;28;20040;-78
2021/09/05 08:49:34;;;;;;;6.90;4.30;;;;;;;18.00;87.23;101422.22;5209851;28;20022;-78
2021/09/05 08:52:05;;;;;;;7.55;4.85;;;;;;;17.25;88.96;101428.72;5209416;28;20044;-79
2021/09/05 08:54:35;;;;;;;9.30;5.05;;;;;;;17.32;89.31;101427.50;5212031;28;20029;-79
2021/09/05 08:57:06;;;;;;;7.13;4.55;;;;;;;19.25;81.97;101428.44;5208243;28;20033;-78
2021/09/05 08:59:36;;;;;;;7.35;4.32;;;;;;;20.71;76.97;101417.66;5213377;28;20022;-79
2021/09/05 09:02:07;;;;;;;6.63;4.10;;;;;;;21.04;76.42;101424.34;5213572;28;20049;-78
2021/09/05 09:04:39;;;;;;;6.55;4.05;;;;;;;22.84;70.20;101417.91;5214901;28;20063;-80
2021/09/05 09:07:11;;;;;;;5.97;3.97;;;;;;;21.74;72.36;101415.22;5215022;28;20056;-79
2021/09/05 09:09:57;;;;;;;6.38;4.00;;;;;;;19.90;79.25;101425.41;5214622;28;20051;-80
2021/09/05 09:12:38;;;;;;;5.88;4.00;;;;;;;20.78;76.89;101411.00;5211912;28;20038;-78
2021/09/05 09:15:24;;;;;;;5.60;3.80;;;;;;;21.72;72.99;101409.16;5213297;28;20567;-79
2021/09/05 09:17:59;;;;;;;5.65;3.67;;;;;;;23.32;66.86;101403.66;5209779;28;20048;-78
2021/09/05 09:20:31;;;;;;;5.97;3.67;;;;;;;24.29;66.21;101403.19;5216785;28;20357;-80
2021/09/05 09:23:19;;;;;;;5.63;4.00;;;;;;;20.94;74.77;101411.75;5209271;28;20099;-79
2021/09/05 09:25:52;;;;;;;5.53;3.70;;;;;;;21.53;71.48;101420.16;5212476;28;20022;-78
2021/09/05 09:28:39;;;;;;;6.97;4.18;;;;;;;21.28;73.08;101416.56;5222384;28;20533;-78
2021/09/05 09:31:28;;;;;;;6.07;4.00;;;;;;;19.28;79.52;101417.66;5215566;28;20169;-80
2021/09/05 09:33:59;;;;;;;7.18;4.47;;;;;;;18.10;86.14;101423.44;5193382;28;20033;-77
2021/09/05 09:36:30;;;;;;;6.85;4.70;;;;;;;18.06;87.51;101428.06;5209463;28;20091;-78
2021/09/05 09:39:05;;;;;;;6.90;4.45;;;;;;;19.00;82.99;101416.63;5216985;28;20068;-79
2021/09/05 09:41:39;;;;;;;6.80;4.47;;;;;;;19.07;82.39;101421.50;5219369;28;20040;-78
2021/09/05 09:44:12;;;;;;;6.82;4.65;;;;;;;18.98;83.06;101415.88;5222867;28;20049;-78
2021/09/05 09:46:46;;;;;;;8.68;4.50;;;;;;;18.09;86.34;101411.13;5223548;28;20028;-77
2021/09/05 09:49:17;;;;;;;6.88;4.50;;;;;;;18.96;84.85;101415.94;5209118;28;20526;-78
2021/09/05 09:51:47;;;;;;;7.95;4.55;;;;;;;18.38;85.08;101413.97;5206370;28;20040;-78
2021/09/05 09:54:18;;;;;;;7.00;4.60;;;;;;;18.03;88.75;101417.59;5212183;28;20037;-77
2021/09/05 09:56:48;;;;;;;7.25;4.32;;;;;;;17.94;88.67;101419.88;5218410;28;20024;-76
2021/09/05 09:59:19;;;;;;;7.53;4.32;;;;;;;18.13;88.59;101416.19;5217709;28;20037;-77
2021/09/05 10:01:49;;;;;;;6.28;3.95;;;;;;;17.58;91.16;101419.13;5220786;28;20037;-77
2021/09/05 10:04:20;;;;;;;7.28;4.55;;;;;;;18.07;90.74;101415.66;5214145;28;20035;-78
2021/09/05 10:06:50;;;;;;;6.57;4.45;;;;;;;17.80;89.00;101420.59;5217879;28;20036;-78
2021/09/05 10:09:22;;;;;;;7.60;4.25;;;;;;;17.70;90.18;101418.50;5212967;28;20045;-78
2021/09/05 10:11:53;;;;;;;7.35;4.82;;;;;;;17.80;90.96;101419.75;5208723;28;20253;-77
2021/09/05 10:14:24;;;;;;;6.80;4.50;;;;;;;17.70;92.13;101418.50;5210447;28;20169;-79
2021/09/05 10:16:55;;;;;;;6.93;4.35;;;;;;;17.37;93.77;101420.22;5208633;28;20467;-77
2021/09/05 10:19:25;;;;;;;7.32;4.78;;;;;;;17.59;92.92;101416.41;5220359;28;20352;-79
2021/09/05 10:21:56;;;;;;;6.88;4.70;;;;;;;17.48;95.13;101413.44;5213586;28;20170;-78
2021/09/05 10:24:41;;;;;;;8.30;5.07;;;;;;;17.12;94.33;101411.78;5220703;28;20050;-77
2021/09/05 10:27:13;;;;;;;8.20;5.05;;;;;;;17.17;94.62;101412.38;5217272;28;20048;-77
2021/09/05 10:30:08;;;;;;;10.10;5.05;;;;;;;17.34;96.10;101415.94;5212997;28;20044;-78
2021/09/05 10:32:57;;;;;;;9.55;4.97;;;;;;;17.66;93.15;101407.22;5212686;28;20120;-78
2021/09/05 10:35:37;;;;;;;9.95;5.15;;;;;;;17.41;95.80;101401.50;5225386;28;20051;-79
2021/09/05 10:38:08;;;;;;;8.35;4.63;;;;;;;17.57;94.00;101409.50;5225209;28;20044;-79
2021/09/05 10:40:49;;;;;;;7.43;4.80;;;;;;;17.65;93.81;101404.69;5208086;28;20041;-78
2021/09/05 10:43:21;;;;;;;6.70;4.97;;;;;;;17.45;95.34;101405.69;5204728;28;20370;-78
2021/09/05 10:45:55;;;;;;;9.43;4.53;;;;;;;17.89;93.83;101403.41;5214695;28;20041;-78
2021/09/05 10:48:33;;;;;;;9.18;4.55;;;;;;;18.03;95.18;101395.59;5228740;28;20021;-79
2021/09/05 10:51:11;;;;;;;9.70;4.70;;;;;;;18.26;92.69;101400.50;5202541;28;20072;-78
2021/09/05 10:53:56;;;;;;;6.90;4.65;;;;;;;17.92;92.89;101397.94;5213256;28;20109;-77
2021/09/05 10:56:29;;;;;;;7.47;4.80;;;;;;;17.82;94.67;101396.72;5204799;28;20091;-78
2021/09/05 10:59:01;;;;;;;6.72;4.43;;;;;;;18.43;92.40;101389.88;5209992;28;20032;-78
2021/09/05 11:01:33;;;;;;;7.10;4.60;;;;;;;18.36;93.02;101394.66;5209319;28;20125;-79
2021/09/05 11:06:46;;;;;;;8.20;4.72;;;;;;;17.79;94.60;101399.53;5225935;28;20170;-78
2021/09/05 11:09:23;;;;;;;10.93;5.18;;;;;;;17.63;96.01;101403.91;5208645;28;20240;-78
2021/09/05 11:12:07;;;;;;;7.45;5.10;;;;;;;17.61;97.01;101403.09;5205190;28;20037;-78
2021/09/05 11:14:42;;;;;;;8.02;4.90;;;;;;;17.69;96.86;101407.06;5213644;28;20117;-79
2021/09/05 11:17:16;;;;;;;8.23;5.20;;;;;;;17.45;96.78;101400.41;5231091;28;20041;-78
2021/09/05 11:19:52;;;;;;;7.93;5.20;;;;;;;17.24;97.43;101403.22;5227678;28;20032;-78
2021/09/05 11:22:29;;;;;;;7.82;5.07;;;;;;;17.41;97.06;101405.91;5216230;28;20056;-78
2021/09/05 11:25:19;;;;;;;9.52;5.68;;;;;;;17.35;96.31;101399.13;5204035;28;20030;-78
2021/09/05 11:27:54;;;;;;;8.70;5.40;;;;;;;17.00;97.19;101405.28;5225611;28;20056;-78
2021/09/05 11:30:33;;;;;;;12.27;6.43;;;;;;;17.23;98.00;101398.88;5228286;28;20063;-79
2021/09/05 11:33:09;;;;;;;8.30;5.43;;;;;;;17.25;98.52;101399.63;5209075;28;20033;-78
2021/09/05 11:35:42;;;;;;;9.60;6.00;;;;;;;17.54;95.78;101407.00;5226791;28;20033;-79
2021/09/05 11:38:14;;;;;;;8.30;5.22;;;;;;;17.76;95.88;101397.03;5208431;28;20013;-78
2021/09/05 11:40:48;;;;;;;9.48;5.45;;;;;;;17.62;96.57;101404.84;5203872;28;20029;-79
2021/09/05 11:43:31;;;;;;;11.05;5.82;;;;;;;17.48;95.40;101400.25;5205743;28;20527;-78
2021/09/05 11:46:17;;;;;;;9.63;5.28;;;;;;;17.59;95.85;101397.91;5220165;28;20095;-78
2021/09/05 11:49:02;;;;;;;8.63;5.50;;;;;;;17.71;96.44;101399.06;5223991;28;20034;-78